Time;durP1;ratioP1;P1;durP2;ratioP2;P2;SDS_P1;SDS_P2;PMS_P1;PMS_P2;Temp;Humidity;BMP_temperature;BMP_pressure;BME280_temperature;BME280_humidity;BME280_pressure;Samples;Min_cycle;Max_cycle;Signal;HPM_P1;HPM_P2
2022/11/17 00:01:20;;;;;;;;;;;;;;;14.90;64.35;99244.63;5041526;28;19928;-75
2022/11/17 00:03:46;;;;;;;;;;;;;;;14.38;64.48;99247.47;5043770;28;19921;-74
2022/11/17 00:06:12;;;;;;;;;;;;;;;14.96;63.24;99230.75;5042697;28;19908;-75
2022/11/17 00:08:37;;;;;;;;;;;;;;;14.60;64.46;99228.81;5043015;28;20326;-76
2022/11/17 00:11:02;;;;;;;;;;;;;;;14.33;65.40;99223.22;5042160;28;19967;-76
2022/11/17 00:16:12;;;;;;;;;;;;;;;14.88;63.67;99219.75;5042943;28;19924;-76
2022/11/17 00:21:22;;;;;;;;;;;;;;;14.86;63.87;99200.31;5042192;28;19924;-74
2022/11/17 00:23:48;;;;;;;;;;;;;;;14.55;64.40;99208.06;5043647;28;19931;-75
2022/11/17 00:26:21;;;;;;;;;;;;;;;14.63;64.08;99202.00;5032794;28;19924;-75
2022/11/17 00:28:50;;;;;;;;;;;;;;;15.30;62.27;99197.19;5033933;28;19917;-73
2022/11/17 00:34:04;;;;;;;;;;;;;;;15.10;63.24;99178.59;5040548;28;19920;-75
2022/11/17 00:36:36;;;;;;;;;;;;;;;14.98;63.38;99176.34;5041857;28;20004;-75
2022/11/17 00:39:01;;;;;;;;;;;;;;;14.62;64.88;99167.94;5041235;28;19912;-76
2022/11/17 00:41:27;;;;;;;;;;;;;;;15.36;62.32;99172.47;5041367;28;19928;-74
2022/11/17 00:43:52;;;;;;;;;;;;;;;14.58;65.23;99166.94;5042079;28;20304;-76
2022/11/17 00:46:18;;;;;;;;;;;;;;;14.31;66.75;99157.88;5033928;28;19925;-75
2022/11/17 00:48:43;;;;;;;;;;;;;;;14.97;65.12;99147.69;5044014;28;20292;-75
2022/11/17 00:51:08;;;;;;;;;;;;;;;15.31;63.89;99144.69;5052364;28;20284;-76
2022/11/17 00:53:33;;;;;;;;;;;;;;;14.87;64.93;99137.84;5052953;28;19917;-75
2022/11/17 00:55:59;;;;;;;;;;;;;;;14.83;65.89;99136.00;5052224;28;19916;-75
2022/11/17 00:58:24;;;;;;;;;;;;;;;14.60;65.90;99124.19;5052348;28;19952;-75
2022/11/17 01:00:49;;;;;;;;;;;;;;;14.50;66.56;99118.94;5052089;28;19928;-77
2022/11/17 01:03:14;;;;;;;;;;;;;;;14.95;65.78;99114.72;5052171;28;19913;-78
2022/11/17 01:05:40;;;;;;;;;;;;;;;14.95;65.54;99102.00;5052267;28;19963;-75
2022/11/17 01:08:05;;;;;;;;;;;;;;;14.82;66.82;99102.75;5032919;28;19931;-77
2022/11/17 01:10:30;;;;;;;;;;;;;;;14.38;68.05;99094.25;5032405;28;20285;-76
2022/11/17 01:12:55;;;;;;;;;;;;;;;14.17;69.02;99092.09;5032203;28;20051;-76
2022/11/17 01:15:21;;;;;;;;;;;;;;;14.47;68.28;99083.56;5035323;28;19917;-75
2022/11/17 01:17:46;;;;;;;;;;;;;;;15.31;65.45;99075.09;5052003;28;19919;-75
2022/11/17 01:20:11;;;;;;;;;;;;;;;14.83;67.34;99066.50;5051484;28;19999;-76
2022/11/17 01:22:36;;;;;;;;;;;;;;;14.76;67.84;99059.88;5051375;28;20348;-75
2022/11/17 01:25:03;;;;;;;;;;;;;;;15.18;65.63;99051.56;5051308;28;20373;-75
2022/11/17 01:27:28;;;;;;;;;;;;;;;14.50;68.68;99040.56;5050985;28;19944;-75
2022/11/17 01:29:54;;;;;;;;;;;;;;;14.83;67.07;99044.06;5051920;28;20358;-75
2022/11/17 01:32:19;;;;;;;;;;;;;;;14.10;70.73;99038.41;5051514;28;19917;-73
2022/11/17 01:34:44;;;;;;;;;;;;;;;14.74;68.54;99030.41;5051505;28;19970;-73
2022/11/17 01:37:18;;;;;;;;;;;;;;;14.26;69.65;99031.72;5050914;28;19944;-73
2022/11/17 01:39:44;;;;;;;;;;;;;;;13.82;72.13;99023.13;5051592;28;19917;-74
2022/11/17 01:42:13;;;;;;;;;;;;;;;14.90;67.70;99020.13;5051308;28;20386;-73
2022/11/17 01:44:47;;;;;;;;;;;;;;;15.09;67.07;99003.84;5051895;28;20319;-72
2022/11/17 01:47:14;;;;;;;;;;;;;;;14.50;69.48;99002.72;5055046;28;19920;-73
2022/11/17 01:49:39;;;;;;;;;;;;;;;14.46;69.85;98992.78;5055683;28;19921;-72
2022/11/17 01:52:06;;;;;;;;;;;;;;;14.57;69.25;98991.50;5053868;28;20372;-73
2022/11/17 01:54:31;;;;;;;;;;;;;;;14.46;69.48;98980.09;5055231;28;20350;-74
2022/11/17 01:56:59;;;;;;;;;;;;;;;14.52;69.43;98968.09;5055423;28;19951;-75
2022/11/17 01:59:28;;;;;;;;;;;;;;;14.46;70.04;98958.47;5054875;28;19920;-73
2022/11/17 02:01:54;;;;;;;;;;;;;;;14.53;69.87;98949.94;5054881;28;20444;-74
2022/11/17 02:04:28;;;;;;;;;;;;;;;14.65;69.44;98931.34;5054901;28;20003;-74
2022/11/17 02:06:57;;;;;;;;;;;;;;;14.28;70.95;98934.97;5054293;28;19917;-74
2022/11/17 02:09:23;;;;;;;;;;;;;;;14.64;70.19;98935.97;5054650;28;19916;-73
2022/11/17 02:11:48;;;;;;;;;;;;;;;14.26;71.44;98929.03;5054699;28;19913;-74
2022/11/17 02:14:14;;;;;;;;;;;;;;;14.71;70.54;98932.88;5054438;28;19920;-72
2022/11/17 02:16:39;;;;;;;;;;;;;;;14.73;69.48;98906.34;5038570;28;19921;-72
2022/11/17 02:19:05;;;;;;;;;;;;;;;14.77;69.67;98910.84;5034417;28;19924;-73
2022/11/17 02:22:08;;;;;;;;;;;;;;;14.37;71.77;98916.97;5034227;28;19928;-72
2022/11/17 02:24:40;;;;;;;;;;;;;;;15.02;69.86;98917.66;5003806;28;20151;-73
2022/11/17 02:27:24;;;;;;;;;;;;;;;14.19;71.95;98895.41;5011506;28;19917;-72
2022/11/17 02:29:53;;;;;;;;;;;;;;;14.74;70.34;98897.91;5002052;28;19906;-70
2022/11/17 02:32:27;;;;;;;;;;;;;;;14.23;72.08;98894.50;4992232;28;19921;-72
2022/11/17 02:35:06;;;;;;;;;;;;;;;14.11;72.50;98897.66;4991820;28;19917;-71
2022/11/17 02:37:50;;;;;;;;;;;;;;;14.20;72.45;98884.28;4991812;28;19957;-72
2022/11/17 02:40:22;;;;;;;;;;;;;;;13.94;74.23;98889.31;4991878;28;20472;-71
2022/11/17 02:45:44;;;;;;;;;;;;;;;13.93;73.07;98879.63;5008726;28;19947;-73
2022/11/17 02:48:14;;;;;;;;;;;;;;;14.36;73.07;98872.16;5011473;28;19940;-71
2022/11/17 02:50:40;;;;;;;;;;;;;;;14.33;72.52;98848.41;5011877;28;19955;-72
2022/11/17 02:53:06;;;;;;;;;;;;;;;14.45;72.01;98854.16;5011214;28;19972;-72
2022/11/17 02:55:34;;;;;;;;;;;;;;;14.63;71.78;98853.25;5024040;28;19948;-72
2022/11/17 02:58:01;;;;;;;;;;;;;;;14.54;72.17;98849.66;5032679;28;20413;-75
2022/11/17 03:00:27;;;;;;;;;;;;;;;14.48;72.44;98864.38;5033959;28;20412;-72
2022/11/17 03:03:10;;;;;;;;;;;;;;;14.94;70.92;98861.56;5034400;28;19920;-73
2022/11/17 03:05:35;;;;;;;;;;;;;;;14.47;72.92;98834.91;5033675;28;19917;-72
2022/11/17 03:08:01;;;;;;;;;;;;;;;14.56;72.63;98833.16;5051824;28;19925;-72
2022/11/17 03:10:45;;;;;;;;;;;;;;;14.52;72.44;98841.06;5053499;28;20147;-72
2022/11/17 03:13:13;;;;;;;;;;;;;;;15.03;71.19;98837.31;5053501;28;19967;-72
2022/11/17 03:15:57;;;;;;;;;;;;;;;15.46;69.74;98808.78;5053589;28;20278;-73
2022/11/17 03:18:22;;;;;;;;;;;;;;;14.66;71.86;98832.94;5053412;28;19921;-73
2022/11/17 03:20:54;;;;;;;;;;;;;;;14.77;72.04;98827.03;5053439;28;19915;-74
2022/11/17 03:23:27;;;;;;;;;;;;;;;15.52;69.40;98821.91;5051601;28;20015;-72
2022/11/17 03:25:54;;;;;;;;;;;;;;;15.15;70.07;98811.38;5033551;28;19913;-72
2022/11/17 03:28:23;;;;;;;;;;;;;;;14.94;70.91;98816.41;5033211;28;19921;-74
2022/11/17 03:30:49;;;;;;;;;;;;;;;14.98;70.72;98822.00;5051438;28;19912;-72
2022/11/17 03:33:18;;;;;;;;;;;;;;;15.41;68.88;98822.41;5052874;28;20019;-73
2022/11/17 03:35:54;;;;;;;;;;;;;;;15.29;69.87;98820.22;5054078;28;20307;-75
2022/11/17 03:38:22;;;;;;;;;;;;;;;15.18;69.36;98808.03;5053016;28;19916;-72
2022/11/17 03:40:48;;;;;;;;;;;;;;;15.55;69.59;98810.44;5052909;28;19916;-74
2022/11/17 03:43:16;;;;;;;;;;;;;;;15.46;69.19;98819.63;5053081;28;20293;-72
2022/11/17 03:45:43;;;;;;;;;;;;;;;15.40;68.77;98823.50;5051752;28;20348;-73
2022/11/17 03:48:13;;;;;;;;;;;;;;;15.26;69.45;98823.56;5053161;28;19912;-74
2022/11/17 03:51:05;;;;;;;;;;;;;;;15.19;69.53;98822.38;5053560;28;19909;-73
2022/11/17 03:53:30;;;;;;;;;;;;;;;15.15;70.26;98794.31;4990989;28;19917;-73
2022/11/17 03:56:02;;;;;;;;;;;;;;;14.91;71.29;98794.56;4991006;28;19932;-73
2022/11/17 03:58:30;;;;;;;;;;;;;;;15.26;69.52;98791.09;4991453;28;19953;-73
2022/11/17 04:00:57;;;;;;;;;;;;;;;14.89;71.27;98796.78;4990990;28;19925;-75
2022/11/17 04:03:22;;;;;;;;;;;;;;;14.81;71.10;98798.28;4990958;28;20301;-72
2022/11/17 04:05:47;;;;;;;;;;;;;;;15.03;70.96;98797.56;4991502;28;19914;-75
2022/11/17 04:08:12;;;;;;;;;;;;;;;15.11;70.25;98799.53;5010431;28;19981;-72
2022/11/17 04:15:55;;;;;;;;;;;;;;;15.16;70.39;98793.19;5010303;28;19960;-75
2022/11/17 04:16:07;;;;;;;;;;;;;;;15.52;69.31;98786.72;5000592;28;20111;-74
2022/11/17 04:18:32;;;;;;;;;;;;;;;15.10;69.63;98787.09;4990405;28;19917;-73
2022/11/17 04:20:57;;;;;;;;;;;;;;;14.53;72.26;98783.19;4990892;28;19922;-75
2022/11/17 04:23:23;;;;;;;;;;;;;;;15.32;69.72;98783.63;4990520;28;19917;-73
2022/11/17 04:28:38;;;;;;;;;;;;;;;14.97;70.73;98763.59;4990441;28;20487;-73
2022/11/17 04:31:06;;;;;;;;;;;;;;;14.65;70.99;98750.22;5016805;28;19940;-73
2022/11/17 04:33:31;;;;;;;;;;;;;;;14.89;71.18;98757.00;5032079;28;19983;-73
2022/11/17 04:35:57;;;;;;;;;;;;;;;15.13;69.65;98740.53;5032275;28;19913;-74
2022/11/17 04:38:22;;;;;;;;;;;;;;;14.81;71.30;98743.41;5031776;28;19917;-72
2022/11/17 04:43:31;;;;;;;;;;;;;;;14.91;70.74;98741.28;5032176;28;19971;-72
2022/11/17 04:45:59;;;;;;;;;;;;;;;14.59;72.28;98735.22;5032072;28;19925;-74
2022/11/17 04:48:25;;;;;;;;;;;;;;;14.81;71.78;98735.28;5031885;28;20341;-73
2022/11/17 04:50:56;;;;;;;;;;;;;;;14.45;72.29;98729.84;5030787;28;20004;-72
2022/11/17 04:53:22;;;;;;;;;;;;;;;14.71;70.89;98735.50;5031722;28;20365;-73
2022/11/17 04:55:47;;;;;;;;;;;;;;;14.93;70.79;98730.97;5032016;28;19917;-73
2022/11/17 04:58:13;;;;;;;;;;;;;;;15.12;70.25;98732.69;5032062;28;20392;-74
2022/11/17 05:00:38;;;;;;;;;;;;;;;14.74;70.61;98729.50;5030097;28;20373;-74
2022/11/17 05:03:03;;;;;;;;;;;;;;;15.06;69.61;98731.22;5039877;28;20007;-74
2022/11/17 05:05:28;;;;;;;;;;;;;;;14.62;70.98;98729.22;5034996;28;19916;-72
2022/11/17 05:07:53;;;;;;;;;;;;;;;15.50;68.73;98723.97;5040790;28;19916;-74
2022/11/17 05:13:21;;;;;;;;;;;;;;;14.34;72.19;98722.25;5045279;28;19970;-73
2022/11/17 05:18:33;;;;;;;;;;;;;;;14.45;71.70;98731.72;5051679;28;19924;-73
2022/11/17 05:21:02;;;;;;;;;;;;;;;14.69;70.77;98722.31;5051133;28;19913;-74
2022/11/17 05:24:00;;;;;;;;;;;;;;;15.57;67.50;98731.63;5051122;28;19916;-74
2022/11/17 05:26:26;;;;;;;;;;;;;;;14.96;70.01;98722.22;5049034;28;20392;-74
2022/11/17 05:28:53;;;;;;;;;;;;;;;14.75;70.69;98723.78;5051355;28;20445;-73
2022/11/17 05:31:18;;;;;;;;;;;;;;;14.63;71.60;98714.59;5039060;28;19920;-71
2022/11/17 05:33:43;;;;;;;;;;;;;;;14.42;71.75;98718.84;5040826;28;20291;-73
2022/11/17 05:36:09;;;;;;;;;;;;;;;14.73;70.03;98700.84;5039057;28;19936;-73
2022/11/17 05:38:34;;;;;;;;;;;;;;;14.89;70.98;98705.63;5040819;28;20186;-74
2022/11/17 05:40:59;;;;;;;;;;;;;;;15.14;69.90;98698.81;5039735;28;19925;-74
2022/11/17 05:43:25;;;;;;;;;;;;;;;14.52;71.20;98703.22;5038935;28;19917;-73
2022/11/17 05:45:50;;;;;;;;;;;;;;;14.74;71.12;98700.53;5040538;28;19952;-73
2022/11/17 05:48:15;;;;;;;;;;;;;;;15.32;69.00;98699.75;5040983;28;19950;-74
2022/11/17 05:50:41;;;;;;;;;;;;;;;14.74;71.16;98699.78;5041091;28;19915;-73
2022/11/17 05:53:06;;;;;;;;;;;;;;;14.83;70.93;98696.03;5038702;28;19955;-72
2022/11/17 05:55:31;;;;;;;;;;;;;;;14.55;71.43;98697.19;5040740;28;19924;-74
2022/11/17 05:57:58;;;;;;;;;;;;;;;14.41;72.57;98691.00;5038697;28;19917;-73
2022/11/17 06:00:24;;;;;;;;;;;;;;;14.46;72.23;98682.00;5040277;28;19929;-73
2022/11/17 06:02:52;;;;;;;;;;;;;;;13.82;74.64;98694.56;5041315;28;20388;-72
2022/11/17 06:05:17;;;;;;;;;;;;;;;14.28;73.28;98680.22;5042988;28;19928;-75
2022/11/17 06:07:42;;;;;;;;;;;;;;;14.52;72.50;98673.50;5049936;28;20377;-72
2022/11/17 06:10:08;;;;;;;;;;;;;;;15.34;69.22;98673.19;5048804;28;19924;-73
2022/11/17 06:12:33;;;;;;;;;;;;;;;14.57;71.78;98677.97;5040755;28;19924;-74
2022/11/17 06:14:58;;;;;;;;;;;;;;;15.09;70.90;98679.22;5034664;28;20389;-74
2022/11/17 06:17:33;;;;;;;;;;;;;;;14.23;73.16;98675.66;5050488;28;19917;-76
2022/11/17 06:20:01;;;;;;;;;;;;;;;14.92;70.66;98669.03;5046852;28;20308;-74
2022/11/17 06:22:26;;;;;;;;;;;;;;;14.81;70.57;98668.50;5037406;28;19959;-73
2022/11/17 06:24:53;;;;;;;;;;;;;;;14.54;72.17;98648.84;5038497;28;19917;-73
2022/11/17 06:27:18;;;;;;;;;;;;;;;14.95;71.06;98646.81;5049960;28;19959;-74
2022/11/17 06:29:44;;;;;;;;;;;;;;;14.94;70.01;98656.81;5043425;28;19908;-73
2022/11/17 06:32:09;;;;;;;;;;;;;;;15.60;68.17;98657.94;5040991;28;19917;-73
2022/11/17 06:34:34;;;;;;;;;;;;;;;15.27;69.32;98662.78;5045011;28;20207;-72
2022/11/17 06:37:01;;;;;;;;;;;;;;;15.33;68.89;98661.53;5045081;28;19913;-73
2022/11/17 06:39:26;;;;;;;;;;;;;;;15.40;69.15;98650.28;5034073;28;19940;-74
2022/11/17 06:41:51;;;;;;;;;;;;;;;15.55;68.48;98647.22;5043836;28;19917;-74
2022/11/17 06:44:17;;;;;;;;;;;;;;;15.25;69.14;98654.16;5047959;28;19916;-74
2022/11/17 06:46:42;;;;;;;;;;;;;;;14.91;70.50;98659.34;5052228;28;19924;-74
2022/11/17 06:49:07;;;;;;;;;;;;;;;15.38;69.40;98655.22;5049670;28;19920;-74
2022/11/17 06:51:33;;;;;;;;;;;;;;;15.47;68.52;98642.53;5043868;28;19913;-73
2022/11/17 06:53:58;;;;;;;;;;;;;;;15.29;69.64;98646.25;5043097;28;20311;-74
2022/11/17 06:56:23;;;;;;;;;;;;;;;15.11;70.09;98642.63;5051882;28;19925;-72
2022/11/17 06:58:49;;;;;;;;;;;;;;;15.36;69.90;98647.41;5053510;28;19916;-71
2022/11/17 07:01:14;;;;;;;;;;;;;;;15.68;68.12;98649.81;5053609;28;19921;-72
2022/11/17 07:03:43;;;;;;;;;;;;;;;15.29;69.94;98646.25;5053474;28;19920;-71
2022/11/17 07:06:09;;;;;;;;;;;;;;;15.49;69.07;98649.25;5053094;28;19912;-74
2022/11/17 07:08:35;;;;;;;;;;;;;;;15.89;68.46;98652.00;5053779;28;19919;-74
2022/11/17 07:11:02;;;;;;;;;;;;;;;15.18;70.73;98645.69;5054089;28;19920;-73
2022/11/17 07:13:27;;;;;;;;;;;;;;;15.90;68.06;98638.13;5054419;28;20388;-73
2022/11/17 07:15:52;;;;;;;;;;;;;;;16.15;67.46;98647.47;5053727;28;19963;-73
2022/11/17 07:18:18;;;;;;;;;;;;;;;15.31;70.33;98644.03;5053092;28;20429;-71
2022/11/17 07:20:44;;;;;;;;;;;;;;;15.01;71.49;98636.66;5053765;28;20292;-72
2022/11/17 07:23:09;;;;;;;;;;;;;;;15.00;71.79;98649.38;5052459;28;20280;-73
2022/11/17 07:25:34;;;;;;;;;;;;;;;15.32;70.69;98649.13;5052988;28;20379;-71
2022/11/17 07:27:59;;;;;;;;;;;;;;;15.52;69.41;98648.66;5052817;28;19924;-72
2022/11/17 07:30:25;;;;;;;;;;;;;;;15.95;68.20;98648.84;5050612;28;20007;-71
2022/11/17 07:32:50;;;;;;;;;;;;;;;15.46;69.84;98651.78;5046979;28;19936;-72
2022/11/17 07:35:16;;;;;;;;;;;;;;;15.42;70.07;98656.22;5041675;28;19916;-70
2022/11/17 07:37:41;;;;;;;;;;;;;;;15.63;69.55;98662.69;5043526;28;19916;-71
2022/11/17 07:40:07;;;;;;;;;;;;;;;15.44;70.52;98665.63;5041825;28;20023;-71
2022/11/17 07:42:32;;;;;;;;;;;;;;;15.65;69.73;98666.72;5041892;28;19921;-72
2022/11/17 07:44:57;;;;;;;;;;;;;;;15.73;69.30;98675.97;5043075;28;20015;-75
2022/11/17 07:47:22;;;;;;;;;;;;;;;15.82;69.15;98669.50;5040917;28;19952;-74
2022/11/17 07:49:48;;;;;;;;;;;;;;;15.37;70.40;98665.22;5042206;28;19917;-74
2022/11/17 07:52:13;;;;;;;;;;;;;;;15.64;69.39;98667.03;5041174;28;19919;-73
2022/11/17 07:54:39;;;;;;;;;;;;;;;15.93;68.51;98664.59;5044712;28;19916;-76
2022/11/17 07:57:04;;;;;;;;;;;;;;;15.87;68.81;98668.56;5045651;28;19970;-77
2022/11/17 07:59:29;;;;;;;;;;;;;;;15.90;69.64;98673.34;5043482;28;19909;-75
2022/11/17 08:01:55;;;;;;;;;;;;;;;15.72;70.13;98675.16;5047125;28;19971;-76
2022/11/17 08:04:20;;;;;;;;;;;;;;;16.00;68.43;98675.00;5052324;28;19982;-74
2022/11/17 08:06:45;;;;;;;;;;;;;;;15.87;69.03;98673.16;5052506;28;19912;-78
2022/11/17 08:09:13;;;;;;;;;;;;;;;15.87;69.13;98682.09;5050026;28;20439;-75
2022/11/17 08:11:38;;;;;;;;;;;;;;;15.98;69.10;98678.00;5045901;28;19996;-77
2022/11/17 08:14:03;;;;;;;;;;;;;;;16.54;67.23;98679.94;5037611;28;19948;-78
2022/11/17 08:16:29;;;;;;;;;;;;;;;16.33;68.42;98678.94;5045027;28;19917;-76
2022/11/17 08:18:58;;;;;;;;;;;;;;;16.29;68.10;98675.25;5052108;28;19923;-76
2022/11/17 08:21:24;;;;;;;;;;;;;;;15.90;69.59;98681.47;5051821;28;20358;-75
2022/11/17 08:23:50;;;;;;;;;;;;;;;16.37;67.61;98680.66;5052808;28;19913;-74
2022/11/17 08:26:16;;;;;;;;;;;;;;;16.71;67.13;98695.47;5050560;28;20004;-77
2022/11/17 08:28:41;;;;;;;;;;;;;;;16.96;66.20;98689.25;5047795;28;20027;-78
2022/11/17 08:31:06;;;;;;;;;;;;;;;17.11;64.96;98684.13;5051678;28;19916;-78
2022/11/17 08:33:32;;;;;;;;;;;;;;;16.86;65.63;98693.09;5051822;28;19913;-79
2022/11/17 08:35:58;;;;;;;;;;;;;;;16.50;66.92;98696.06;5052316;28;19913;-79
2022/11/17 08:38:27;;;;;;;;;;;;;;;17.20;64.88;98703.13;5051587;28;19917;-76
2022/11/17 08:40:53;;;;;;;;;;;;;;;17.02;65.57;98709.69;5051133;28;19921;-77
2022/11/17 08:43:18;;;;;;;;;;;;;;;16.51;67.23;98692.22;5050581;28;19925;-77
2022/11/17 08:45:43;;;;;;;;;;;;;;;16.71;66.71;98711.75;5051720;28;20027;-77
2022/11/17 08:48:08;;;;;;;;;;;;;;;16.50;67.28;98711.53;5051500;28;20053;-77
2022/11/17 08:50:34;;;;;;;;;;;;;;;16.66;67.14;98710.78;5051762;28;19922;-81
2022/11/17 08:52:59;;;;;;;;;;;;;;;16.77;66.41;98711.25;5051451;28;19912;-76
2022/11/17 08:55:25;;;;;;;;;;;;;;;16.59;67.54;98715.84;5050328;28;19954;-76
2022/11/17 08:57:50;;;;;;;;;;;;;;;16.35;69.12;98712.72;5050931;28;19916;-77
2022/11/17 09:00:15;;;;;;;;;;;;;;;16.85;66.83;98720.50;5051359;28;19936;-78
2022/11/17 09:02:41;;;;;;;;;;;;;;;16.70;67.40;98724.50;5051709;28;19916;-76
2022/11/17 09:05:06;;;;;;;;;;;;;;;16.95;66.85;98725.63;5051240;28;19969;-76
2022/11/17 09:07:32;;;;;;;;;;;;;;;16.68;67.81;98724.81;5051024;28;19952;-75
2022/11/17 09:09:58;;;;;;;;;;;;;;;17.33;65.86;98726.59;5051025;28;19913;-77
2022/11/17 09:12:24;;;;;;;;;;;;;;;17.34;64.93;98722.75;5051268;28;20000;-77
2022/11/17 09:14:49;;;;;;;;;;;;;;;16.64;67.48;98731.19;5051547;28;19913;-76
2022/11/17 09:17:14;;;;;;;;;;;;;;;16.98;66.81;98736.63;5051092;28;19917;-75
2022/11/17 09:19:40;;;;;;;;;;;;;;;17.29;65.78;98723.75;5050994;28;20019;-74
2022/11/17 09:22:05;;;;;;;;;;;;;;;17.24;65.64;98734.75;5050767;28;20107;-76
2022/11/17 09:24:30;;;;;;;;;;;;;;;16.96;66.56;98736.16;5050741;28;19920;-77
2022/11/17 09:26:56;;;;;;;;;;;;;;;17.48;65.17;98739.69;5051412;28;19988;-76
2022/11/17 09:29:21;;;;;;;;;;;;;;;16.81;66.31;98738.53;5050690;28;19963;-75
2022/11/17 09:31:46;;;;;;;;;;;;;;;16.56;68.32;98750.94;5050994;28;19912;-74
2022/11/17 09:34:12;;;;;;;;;;;;;;;16.86;66.83;98735.69;5051040;28;19916;-75
2022/11/17 09:36:37;;;;;;;;;;;;;;;16.94;66.15;98741.13;5050715;28;19966;-74
2022/11/17 09:39:03;;;;;;;;;;;;;;;16.60;68.13;98751.91;5050577;28;20046;-75
2022/11/17 09:41:33;;;;;;;;;;;;;;;17.09;65.96;98756.13;5050488;28;19927;-75
2022/11/17 09:44:24;;;;;;;;;;;;;;;16.58;68.05;98759.56;5047729;28;19917;-76
2022/11/17 09:46:49;;;;;;;;;;;;;;;17.15;65.99;98755.66;5029678;28;20003;-78
2022/11/17 09:49:21;;;;;;;;;;;;;;;16.89;66.75;98756.75;5030872;28;20424;-76
2022/11/17 09:51:48;;;;;;;;;;;;;;;17.10;66.03;98763.16;5039030;28;20014;-76
2022/11/17 09:54:25;;;;;;;;;;;;;;;16.77;67.48;98762.78;5050499;28;19912;-75
2022/11/17 09:56:53;;;;;;;;;;;;;;;17.10;66.07;98766.66;5051135;28;19909;-76
2022/11/17 09:59:19;;;;;;;;;;;;;;;17.20;64.87;98762.84;5050633;28;19944;-76
2022/11/17 10:01:44;;;;;;;;;;;;;;;17.33;64.70;98772.75;5050808;28;20428;-77
2022/11/17 10:04:11;;;;;;;;;;;;;;;17.38;64.38;98770.69;5050488;28;20051;-76
2022/11/17 10:06:36;;;;;;;;;;;;;;;17.14;65.57;98778.47;5051788;28;19916;-76
2022/11/17 10:09:25;;;;;;;;;;;;;;;17.17;65.87;98774.34;5054358;28;20552;-75
2022/11/17 10:11:51;;;;;;;;;;;;;;;17.02;65.33;98778.31;5055139;28;19916;-76
2022/11/17 10:14:18;;;;;;;;;;;;;;;17.30;64.97;98784.25;5054459;28;19982;-77
2022/11/17 10:16:57;;;;;;;;;;;;;;;16.99;65.69;98789.81;5054188;28;19999;-76
2022/11/17 10:19:23;;;;;;;;;;;;;;;16.72;66.61;98792.78;5054389;28;19916;-74
2022/11/17 10:21:51;;;;;;;;;;;;;;;16.72;66.15;98784.66;5054312;28;19921;-76
2022/11/17 10:24:34;;;;;;;;;;;;;;;16.29;67.53;98789.88;5053903;28;19912;-78
2022/11/17 10:27:01;;;;;;;;;;;;;;;16.37;67.50;98788.31;5053208;28;20394;-76
2022/11/17 10:29:27;;;;;;;;;;;;;;;16.80;66.52;98789.28;5054289;28;19920;-75
2022/11/17 10:31:52;;;;;;;;;;;;;;;16.57;66.39;98787.78;5054131;28;19924;-76
2022/11/17 10:34:34;;;;;;;;;;;;;;;16.75;66.37;98797.56;5054019;28;19916;-76
2022/11/17 10:37:21;;;;;;;;;;;;;;;16.74;66.63;98800.59;5053787;28;19923;-76
2022/11/17 10:39:46;;;;;;;;;;;;;;;16.65;65.93;98798.66;5053787;28;19923;-75
2022/11/17 10:42:14;;;;;;;;;;;;;;;16.58;66.14;98801.03;5053320;28;20023;-76
2022/11/17 10:44:40;;;;;;;;;;;;;;;16.26;67.27;98801.34;5054120;28;20335;-77
2022/11/17 10:47:22;;;;;;;;;;;;;;;16.99;64.52;98803.38;5053589;28;19923;-78
2022/11/17 10:50:03;;;;;;;;;;;;;;;17.06;64.85;98800.97;5052049;28;19924;-75
2022/11/17 10:52:28;;;;;;;;;;;;;;;16.69;65.37;98807.75;5053794;28;19916;-76
2022/11/17 10:55:09;;;;;;;;;;;;;;;17.09;64.07;98805.78;5053636;28;20311;-70
2022/11/17 10:57:34;;;;;;;;;;;;;;;17.04;64.41;98816.00;5053889;28;19913;-70
2022/11/17 11:00:00;;;;;;;;;;;;;;;17.01;64.23;98808.47;5052723;28;19919;-71
2022/11/17 11:02:36;;;;;;;;;;;;;;;16.90;64.74;98815.34;5053826;28;20368;-71
2022/11/17 11:05:20;;;;;;;;;;;;;;;17.21;63.79;98821.44;5053339;28;19946;-71
2022/11/17 11:07:45;;;;;;;;;;;;;;;16.91;65.41;98825.84;5053805;28;19921;-71
2022/11/17 11:10:28;;;;;;;;;;;;;;;16.92;65.00;98821.25;5053101;28;19920;-71
2022/11/17 11:13:01;;;;;;;;;;;;;;;17.18;64.06;98825.59;5053337;28;19917;-72
2022/11/17 11:15:30;;;;;;;;;;;;;;;16.84;64.72;98833.69;5047575;28;20011;-70
2022/11/17 11:17:55;;;;;;;;;;;;;;;16.79;64.88;98831.09;5048280;28;19943;-71
2022/11/17 11:20:29;;;;;;;;;;;;;;;16.77;65.42;98832.50;5049574;28;19964;-72
2022/11/17 11:23:13;;;;;;;;;;;;;;;16.92;64.11;98840.22;5049217;28;19917;-73
2022/11/17 11:25:41;;;;;;;;;;;;;;;16.56;65.70;98843.94;5036369;28;20361;-70
2022/11/17 11:28:13;;;;;;;;;;;;;;;16.07;67.38;98836.00;5048872;28;20287;-72
2022/11/17 11:30:44;;;;;;;;;;;;;;;16.25;66.07;98845.03;5046854;28;20183;-72
2022/11/17 11:33:28;;;;;;;;;;;;;;;16.68;65.24;98844.16;5049264;28;19912;-71
2022/11/17 11:35:54;;;;;;;;;;;;;;;16.64;65.83;98843.19;5049242;28;19959;-73
2022/11/17 11:38:37;;;;;;;;;;;;;;;16.82;64.93;98846.75;5049608;28;20352;-70
2022/11/17 11:41:08;;;;;;;;;;;;;;;16.54;65.83;98845.34;5048839;28;19923;-71
2022/11/17 11:43:33;;;;;;;;;;;;;;;17.09;63.79;98840.25;5049272;28;19920;-74
2022/11/17 11:46:11;;;;;;;;;;;;;;;16.98;64.40;98847.13;5037993;28;19913;-73
2022/11/17 11:48:38;;;;;;;;;;;;;;;16.81;64.36;98847.84;5048775;28;19974;-71
2022/11/17 11:51:09;;;;;;;;;;;;;;;17.04;64.23;98843.16;5048768;28;19912;-73
2022/11/17 11:53:56;;;;;;;;;;;;;;;16.25;66.49;98859.38;5049778;28;20317;-71
2022/11/17 11:56:26;;;;;;;;;;;;;;;16.73;65.17;98861.41;5048945;28;19917;-71
2022/11/17 11:58:51;;;;;;;;;;;;;;;16.88;65.03;98860.97;5048920;28;19932;-73
2022/11/17 12:01:18;;;;;;;;;;;;;;;17.00;63.95;98853.03;5047999;28;20324;-75
2022/11/17 12:03:48;;;;;;;;;;;;;;;17.25;64.09;98857.72;5047417;28;19925;-72
2022/11/17 12:06:43;;;;;;;;;;;;;;;17.48;62.82;98865.44;5048829;28;20415;-71
2022/11/17 12:09:13;;;;;;;;;;;;;;;17.12;64.06;98870.28;4985953;28;20349;-71
2022/11/17 12:11:59;;;;;;;;;;;;;;;16.81;64.95;98872.25;4972403;28;19979;-73
2022/11/17 12:14:25;;;;;;;;;;;;;;;17.09;64.30;98870.94;4987794;28;19918;-73
2022/11/17 12:16:59;;;;;;;;;;;;;;;17.08;64.53;98874.75;4974582;28;19918;-69
2022/11/17 12:19:43;;;;;;;;;;;;;;;17.04;64.21;98871.06;4970940;28;20346;-72
2022/11/17 12:22:17;;;;;;;;;;;;;;;16.61;64.84;98868.19;4979120;28;19966;-71
2022/11/17 12:24:42;;;;;;;;;;;;;;;16.99;64.00;98867.69;4989785;28;19994;-71
2022/11/17 12:27:26;;;;;;;;;;;;;;;17.28;64.27;98867.91;4989836;28;19925;-72
2022/11/17 12:29:51;;;;;;;;;;;;;;;17.05;64.05;98863.72;4990212;28;19945;-70
2022/11/17 12:32:35;;;;;;;;;;;;;;;16.90;64.52;98864.97;4989916;28;20116;-73
2022/11/17 12:35:19;;;;;;;;;;;;;;;17.12;64.09;98874.94;4989947;28;20077;-69
2022/11/17 12:37:44;;;;;;;;;;;;;;;17.30;63.67;98874.63;4989819;28;19913;-71
2022/11/17 12:40:29;;;;;;;;;;;;;;;17.36;63.13;98869.84;4989531;28;19917;-70
2022/11/17 12:43:13;;;;;;;;;;;;;;;17.35;63.14;98874.50;4988958;28;19975;-71
2022/11/17 12:45:57;;;;;;;;;;;;;;;16.97;63.89;98878.06;5011965;28;19924;-69
2022/11/17 12:48:28;;;;;;;;;;;;;;;16.85;64.87;98886.81;5031650;28;19913;-70
2022/11/17 12:50:53;;;;;;;;;;;;;;;17.15;63.76;98879.72;5033451;28;19971;-70
2022/11/17 12:53:28;;;;;;;;;;;;;;;16.78;63.93;98885.66;5032539;28;19913;-71
2022/11/17 12:56:01;;;;;;;;;;;;;;;16.92;64.42;98886.34;5031445;28;19916;-69
2022/11/17 12:58:34;;;;;;;;;;;;;;;17.01;63.90;98889.88;5030072;28;19967;-70
2022/11/17 13:01:02;;;;;;;;;;;;;;;16.64;64.61;98896.59;5031465;28;20432;-71
2022/11/17 13:03:54;;;;;;;;;;;;;;;17.11;63.58;98897.75;5031451;28;19917;-71
2022/11/17 13:06:19;;;;;;;;;;;;;;;16.92;64.11;98914.28;5029111;28;19978;-71
2022/11/17 13:08:55;;;;;;;;;;;;;;;17.22;62.88;98901.75;5031632;28;19909;-72
2022/11/17 13:11:21;;;;;;;;;;;;;;;17.06;63.90;98909.53;5031174;28;19951;-69
2022/11/17 13:13:46;;;;;;;;;;;;;;;17.18;63.16;98909.75;5031373;28;19980;-70
2022/11/17 13:16:17;;;;;;;;;;;;;;;17.20;62.90;98914.84;5041781;28;19923;-71
2022/11/17 13:18:43;;;;;;;;;;;;;;;16.89;63.94;98919.53;5051208;28;19912;-71
2022/11/17 13:21:23;;;;;;;;;;;;;;;16.09;65.82;98909.66;5050889;28;19940;-70